createdAt,value
2023-01-06T00:01:08.986Z,92.50
2023-01-06T00:03:36.058Z,92.97
2023-01-06T00:06:04.318Z,92.24
2023-01-06T00:08:30.835Z,92.70
2023-01-06T00:10:57.421Z,92.88
2023-01-06T00:13:23.836Z,92.71
2023-01-06T00:15:50.316Z,92.33
2023-01-06T00:18:16.767Z,92.86
2023-01-06T00:20:43.128Z,93.40
2023-01-06T00:23:09.518Z,93.48
2023-01-06T00:25:35.930Z,93.86
2023-01-06T00:28:02.313Z,93.27
2023-01-06T00:30:29.737Z,93.09
2023-01-06T00:32:56.116Z,93.16
2023-01-06T00:35:22.449Z,93.66
2023-01-06T00:37:48.840Z,93.59
2023-01-06T00:40:15.339Z,93.62
2023-01-06T00:42:41.716Z,93.25
2023-01-06T00:45:08.548Z,93.32
2023-01-06T00:47:35.104Z,92.76
2023-01-06T00:50:01.566Z,93.21
2023-01-06T00:52:27.903Z,93.41
2023-01-06T00:54:54.411Z,92.88
2023-01-06T00:57:20.783Z,93.01
2023-01-06T00:59:47.125Z,92.46
2023-01-06T01:02:13.707Z,91.94
2023-01-06T01:04:40.164Z,92.32
2023-01-06T01:07:06.525Z,92.70
2023-01-06T01:09:33.053Z,92.11
2023-01-06T01:12:12.407Z,93.06
2023-01-06T01:14:47.047Z,93.15
2023-01-06T01:17:16.560Z,93.78
2023-01-06T01:19:43.180Z,93.97
2023-01-06T01:22:09.728Z,94.23
2023-01-06T01:24:36.558Z,94.08
2023-01-06T01:27:03.070Z,94.28
2023-01-06T01:29:29.746Z,94.45
2023-01-06T01:31:56.396Z,94.58
2023-01-06T01:34:23.366Z,94.58
2023-01-06T01:36:51.844Z,94.04
2023-01-06T01:39:21.123Z,94.19
2023-01-06T01:41:48.384Z,94.11
2023-01-06T01:44:52.913Z,94.62
2023-01-06T01:47:44.401Z,93.63
2023-01-06T01:50:31.427Z,94.50
2023-01-06T01:53:30.059Z,94.39
2023-01-06T01:55:59.461Z,94.03
2023-01-06T01:58:31.887Z,94.09
2023-01-06T02:00:58.281Z,94.36
2023-01-06T02:03:26.736Z,95.29
2023-01-06T02:05:57.555Z,94.69
2023-01-06T02:08:33.593Z,95.25
2023-01-06T02:10:59.944Z,94.85
2023-01-06T02:13:26.467Z,94.89
2023-01-06T02:16:01.811Z,94.88
2023-01-06T02:19:04.437Z,94.86
2023-01-06T02:21:46.789Z,94.76
2023-01-06T02:24:40.176Z,95.28
2023-01-06T02:27:12.509Z,94.89
2023-01-06T02:30:00.531Z,94.95
2023-01-06T02:32:44.583Z,95.19
2023-01-06T02:35:26.910Z,95.61
2023-01-06T02:38:02.067Z,94.69
2023-01-06T02:44:17.396Z,94.71
2023-01-06T02:46:56.703Z,94.79
2023-01-06T02:49:41.245Z,95.06
2023-01-06T02:52:18.886Z,95.42
2023-01-06T02:54:53.807Z,95.10
2023-01-06T02:57:38.976Z,95.48
2023-01-06T03:00:08.696Z,95.19
2023-01-06T03:02:37.450Z,94.98
2023-01-06T03:05:08.369Z,94.83
2023-01-06T03:07:38.036Z,94.29
2023-01-06T03:10:07.475Z,94.53
2023-01-06T03:12:54.882Z,94.80
2023-01-06T03:15:23.604Z,94.85
2023-01-06T03:17:50.564Z,95.45
2023-01-06T03:20:17.180Z,95.79
2023-01-06T03:22:43.721Z,95.98
2023-01-06T03:25:11.050Z,96.03
2023-01-06T03:27:37.827Z,95.74
2023-01-06T03:30:09.727Z,95.91
2023-01-06T03:32:54.472Z,95.65
2023-01-06T03:35:39.051Z,95.58
2023-01-06T03:38:22.490Z,95.74
2023-01-06T03:41:06.622Z,95.19
2023-01-06T03:43:39.331Z,95.71
2023-01-06T03:46:05.716Z,95.43
2023-01-06T03:49:07.428Z,95.75
2023-01-06T03:51:40.068Z,96.04
2023-01-06T03:54:35.375Z,95.30
2023-01-06T03:57:12.949Z,95.15
2023-01-06T03:59:47.530Z,94.88
2023-01-06T04:02:14.422Z,95.39
2023-01-06T04:04:41.220Z,95.63
2023-01-06T04:07:07.696Z,95.17
2023-01-06T04:09:34.245Z,95.37
2023-01-06T04:12:19.100Z,95.04
2023-01-06T04:14:45.527Z,94.85
2023-01-06T04:17:13.635Z,94.69
2023-01-06T04:19:40.246Z,95.35
2023-01-06T04:22:06.734Z,95.10
2023-01-06T04:24:33.186Z,94.84
2023-01-06T04:26:59.585Z,95.28
2023-01-06T04:29:25.966Z,95.75
2023-01-06T04:31:52.358Z,95.70
2023-01-06T04:34:18.815Z,95.98
2023-01-06T04:36:45.267Z,95.95
2023-01-06T04:39:11.684Z,96.30
2023-01-06T04:41:38.038Z,96.16
2023-01-06T04:44:04.666Z,96.21
2023-01-06T04:46:31.096Z,96.75
2023-01-06T04:48:57.641Z,95.24
2023-01-06T04:51:24.025Z,96.28
2023-01-06T04:53:50.381Z,96.02
2023-01-06T04:56:16.758Z,96.51
2023-01-06T04:58:45.093Z,95.87
2023-01-06T05:01:12.838Z,95.91
2023-01-06T05:03:40.112Z,96.42
2023-01-06T05:06:09.903Z,96.28
2023-01-06T05:08:37.845Z,96.63
2023-01-06T05:11:16.546Z,96.31
2023-01-06T05:13:43.260Z,96.77
2023-01-06T05:16:16.652Z,96.40
2023-01-06T05:18:43.158Z,96.40
2023-01-06T05:21:09.986Z,96.84
2023-01-06T05:23:37.557Z,96.69
2023-01-06T05:26:05.082Z,96.65
2023-01-06T05:28:32.390Z,96.95
2023-01-06T05:31:02.888Z,96.74
2023-01-06T05:33:30.914Z,96.86
2023-01-06T05:36:06.749Z,97.06
2023-01-06T05:38:34.419Z,97.28
2023-01-06T05:41:01.479Z,97.25
2023-01-06T05:43:28.429Z,97.07
2023-01-06T05:45:56.072Z,97.04
2023-01-06T05:48:27.517Z,96.76
2023-01-06T05:51:01.216Z,96.95
2023-01-06T05:53:30.846Z,97.23
2023-01-06T05:56:04.405Z,97.31
2023-01-06T05:58:33.353Z,97.65
2023-01-06T06:01:01.305Z,97.39
2023-01-06T06:03:27.875Z,97.48
2023-01-06T06:05:54.268Z,97.60
2023-01-06T06:08:20.705Z,98.00
2023-01-06T06:10:47.088Z,97.85
2023-01-06T06:13:13.463Z,98.06
2023-01-06T06:15:39.896Z,98.08
2023-01-06T06:18:06.253Z,98.24
2023-01-06T06:20:32.604Z,98.40
2023-01-06T06:22:59.103Z,98.16
2023-01-06T06:25:25.590Z,98.13
2023-01-06T06:27:51.929Z,97.96
2023-01-06T06:30:18.409Z,97.72
2023-01-06T06:32:44.904Z,98.32
2023-01-06T06:35:11.434Z,97.94
2023-01-06T06:37:37.793Z,97.94
2023-01-06T06:40:04.813Z,98.08
2023-01-06T06:42:31.688Z,98.14
2023-01-06T06:44:58.078Z,98.25
2023-01-06T06:47:24.465Z,98.35
2023-01-06T06:49:51.213Z,97.99
2023-01-06T06:52:17.646Z,97.88
2023-01-06T06:54:44.041Z,97.92
2023-01-06T06:57:10.376Z,98.04
2023-01-06T06:59:36.761Z,98.10
2023-01-06T07:02:03.251Z,98.34
2023-01-06T07:04:29.776Z,98.31
2023-01-06T07:06:56.851Z,98.38
2023-01-06T07:09:23.235Z,98.24
2023-01-06T07:11:49.721Z,98.29
2023-01-06T07:14:16.119Z,98.06
2023-01-06T07:16:42.555Z,98.13
2023-01-06T07:19:09.578Z,98.22
2023-01-06T07:21:36.036Z,97.86
2023-01-06T07:24:02.477Z,98.19
2023-01-06T07:26:28.837Z,98.31
2023-01-06T07:28:55.171Z,98.15
2023-01-06T07:31:21.559Z,97.98
2023-01-06T07:33:47.925Z,98.17
2023-01-06T07:36:14.397Z,98.33
2023-01-06T07:38:40.813Z,98.29
2023-01-06T07:41:07.239Z,98.48
2023-01-06T07:43:33.613Z,98.45
2023-01-06T07:46:00.073Z,98.59
2023-01-06T07:48:26.558Z,98.29
2023-01-06T07:50:52.903Z,98.07
2023-01-06T07:53:20.570Z,98.18
2023-01-06T07:55:54.048Z,98.12
2023-01-06T07:58:23.800Z,98.33
2023-01-06T08:00:50.384Z,98.04
2023-01-06T08:03:16.794Z,98.38
2023-01-06T08:05:43.610Z,98.38
2023-01-06T08:08:11.466Z,98.89
2023-01-06T08:10:42.082Z,98.38
2023-01-06T08:13:09.649Z,98.58
2023-01-06T08:15:37.249Z,98.20
2023-01-06T08:18:03.774Z,98.33
2023-01-06T08:20:30.129Z,98.72
2023-01-06T08:22:57.884Z,98.23
2023-01-06T08:25:24.321Z,98.70
2023-01-06T08:27:50.896Z,98.41
2023-01-06T08:30:21.421Z,98.55
2023-01-06T08:32:49.410Z,98.88
2023-01-06T08:35:15.992Z,98.71
2023-01-06T08:37:42.675Z,98.69
2023-01-06T08:40:09.478Z,98.52
2023-01-06T08:42:35.872Z,99.02
2023-01-06T08:45:02.364Z,98.82
2023-01-06T08:47:29.015Z,98.45
2023-01-06T08:49:55.385Z,99.00
2023-01-06T08:52:21.728Z,98.47
2023-01-06T08:54:48.141Z,98.91
2023-01-06T08:57:15.875Z,98.42
2023-01-06T08:59:42.687Z,98.26
2023-01-06T09:02:10.876Z,98.50
2023-01-06T09:04:37.393Z,98.71
2023-01-06T09:07:04.130Z,98.34
2023-01-06T09:09:30.516Z,98.85
2023-01-06T09:11:57.955Z,98.94
2023-01-06T09:14:24.371Z,99.02
2023-01-06T09:16:50.731Z,99.39
2023-01-06T09:19:17.175Z,99.17
2023-01-06T09:21:45.969Z,99.08
2023-01-06T09:24:13.927Z,99.23
2023-01-06T09:26:40.301Z,98.97
2023-01-06T09:29:06.702Z,98.78
2023-01-06T09:31:33.151Z,99.36
2023-01-06T09:33:59.969Z,98.77
2023-01-06T09:36:26.396Z,98.69
2023-01-06T09:38:52.734Z,99.26
2023-01-06T09:42:04.956Z,98.52
2023-01-06T09:44:40.271Z,98.47
2023-01-06T09:47:12.643Z,98.33
2023-01-06T09:50:03.114Z,97.96
2023-01-06T09:52:33.714Z,97.45
2023-01-06T09:55:05.186Z,96.05
2023-01-06T09:57:43.803Z,96.79
2023-01-06T10:00:28.275Z,96.92
2023-01-06T10:02:56.391Z,96.68
2023-01-06T10:05:32.220Z,95.81
2023-01-06T10:08:19.892Z,95.85
2023-01-06T10:10:53.050Z,95.83
2023-01-06T10:13:31.459Z,95.97
2023-01-06T10:16:06.232Z,96.28
2023-01-06T10:18:35.456Z,96.32
2023-01-06T10:21:06.953Z,95.65
2023-01-06T10:23:56.554Z,95.06
2023-01-06T10:26:30.195Z,94.80
2023-01-06T10:29:06.707Z,94.47
2023-01-06T10:31:37.070Z,94.46
2023-01-06T10:34:07.049Z,94.46
2023-01-06T10:36:40.984Z,94.29
2023-01-06T10:39:15.609Z,94.52
2023-01-06T10:42:28.243Z,94.47
2023-01-06T10:44:54.591Z,94.93
2023-01-06T10:47:27.861Z,94.08
2023-01-06T10:49:54.612Z,95.13
2023-01-06T10:52:22.540Z,94.91
2023-01-06T10:54:53.587Z,95.41
2023-01-06T10:57:22.648Z,94.53
2023-01-06T11:00:13.925Z,94.95
2023-01-06T11:03:09.258Z,94.71
2023-01-06T11:05:40.848Z,94.00
2023-01-06T11:08:15.784Z,93.71
2023-01-06T11:10:50.875Z,92.80
2023-01-06T11:13:30.087Z,92.77
2023-01-06T11:15:58.721Z,93.08
2023-01-06T11:18:38.065Z,92.37
2023-01-06T11:21:17.838Z,92.77
2023-01-06T11:23:46.749Z,93.00
2023-01-06T11:26:16.112Z,92.77
2023-01-06T11:28:45.454Z,92.10
2023-01-06T11:31:14.971Z,92.02
2023-01-06T11:33:54.081Z,91.76
2023-01-06T11:36:23.055Z,91.79
2023-01-06T11:38:51.916Z,90.11
2023-01-06T11:41:24.899Z,89.08
2023-01-06T11:43:53.054Z,87.57
2023-01-06T11:46:22.086Z,86.15
2023-01-06T11:48:53.594Z,86.61
2023-01-06T11:51:46.105Z,86.55
2023-01-06T11:54:39.828Z,86.40
2023-01-06T11:57:20.874Z,86.81
2023-01-06T12:00:01.756Z,86.41
2023-01-06T12:02:39.552Z,85.78
2023-01-06T12:05:16.393Z,86.14
2023-01-06T12:07:52.769Z,85.60
2023-01-06T12:10:26.249Z,86.33
2023-01-06T12:12:52.713Z,86.02
2023-01-06T12:15:19.731Z,86.63
2023-01-06T12:17:57.963Z,86.22
2023-01-06T12:20:32.579Z,86.14
2023-01-06T12:23:14.649Z,86.48
2023-01-06T12:25:57.360Z,85.92
2023-01-06T12:28:35.763Z,86.69
2023-01-06T12:31:27.634Z,86.73
2023-01-06T12:34:20.034Z,86.31
2023-01-06T12:36:55.261Z,86.60
2023-01-06T12:39:32.492Z,86.81
2023-01-06T12:42:27.602Z,87.07
2023-01-06T12:45:12.431Z,86.96
2023-01-06T12:47:45.866Z,86.42
2023-01-06T12:50:26.813Z,86.61
2023-01-06T12:53:19.738Z,86.68
2023-01-06T12:55:56.528Z,86.83
2023-01-06T12:58:44.418Z,86.98
2023-01-06T13:01:18.881Z,86.66
2023-01-06T13:04:13.058Z,85.97
2023-01-06T13:07:08.728Z,84.18
2023-01-06T13:09:45.010Z,84.35
2023-01-06T13:12:43.888Z,84.48
2023-01-06T13:15:29.214Z,83.94
2023-01-06T13:18:02.633Z,84.67
2023-01-06T13:20:46.697Z,84.22
2023-01-06T13:23:59.330Z,83.67
2023-01-06T13:26:44.228Z,83.90
2023-01-06T13:29:28.672Z,84.45
2023-01-06T13:32:27.255Z,82.84
2023-01-06T13:35:11.848Z,83.47
2023-01-06T13:37:52.154Z,83.83
2023-01-06T13:40:21.111Z,83.74
2023-01-06T13:43:03.617Z,83.92
2023-01-06T13:45:41.024Z,83.04
2023-01-06T13:48:09.774Z,82.35
2023-01-06T13:50:40.981Z,82.75
2023-01-06T13:53:16.629Z,82.89
2023-01-06T13:55:44.438Z,82.68
2023-01-06T13:58:25.786Z,82.84
2023-01-06T14:01:11.990Z,83.15
2023-01-06T14:03:42.841Z,82.29
2023-01-06T14:06:33.451Z,82.87
2023-01-06T14:09:01.224Z,83.28
2023-01-06T14:11:31.026Z,83.12
2023-01-06T14:14:00.192Z,82.82
2023-01-06T14:16:42.657Z,82.15
2023-01-06T14:19:19.289Z,82.83
2023-01-06T14:21:48.289Z,82.41
2023-01-06T14:24:35.975Z,82.57
2023-01-06T14:27:04.733Z,82.59
2023-01-06T14:29:43.294Z,82.65
2023-01-06T14:32:30.991Z,83.12
2023-01-06T14:35:00.259Z,83.06
2023-01-06T14:37:32.409Z,82.78
2023-01-06T14:40:00.730Z,83.04
2023-01-06T14:42:34.698Z,82.74
2023-01-06T14:45:07.441Z,82.92
2023-01-06T14:47:42.632Z,82.39
2023-01-06T14:50:14.007Z,82.41
2023-01-06T14:52:56.418Z,82.02
2023-01-06T14:55:26.493Z,82.70
2023-01-06T14:57:53.079Z,82.17
2023-01-06T15:00:26.935Z,81.78
2023-01-06T15:02:55.596Z,82.46
2023-01-06T15:05:27.448Z,82.62
2023-01-06T15:08:09.012Z,82.73
2023-01-06T15:10:44.565Z,82.16
2023-01-06T15:13:32.483Z,81.37
2023-01-06T15:16:19.846Z,81.60
2023-01-06T15:18:47.649Z,81.54
2023-01-06T15:21:14.360Z,81.30
2023-01-06T15:23:50.730Z,80.88
2023-01-06T15:26:26.670Z,81.07
2023-01-06T15:29:13.965Z,80.53
2023-01-06T15:31:41.085Z,80.58
2023-01-06T15:34:12.761Z,80.22
2023-01-06T15:36:43.167Z,79.74
2023-01-06T15:39:14.687Z,80.19
2023-01-06T15:41:41.716Z,80.46
2023-01-06T15:44:36.057Z,80.32
2023-01-06T15:47:11.599Z,80.13
2023-01-06T15:50:03.530Z,79.11
2023-01-06T15:52:38.667Z,79.17
2023-01-06T15:55:07.898Z,78.24
2023-01-06T15:57:38.723Z,79.26
2023-01-06T16:00:18.906Z,78.85
2023-01-06T16:02:47.156Z,78.49
2023-01-06T16:05:35.642Z,78.65
2023-01-06T16:08:04.420Z,78.49
2023-01-06T16:10:33.691Z,78.59
2023-01-06T16:13:24.916Z,77.84
2023-01-06T16:16:04.394Z,78.22
2023-01-06T16:18:33.369Z,78.24
2023-01-06T16:21:11.733Z,78.89
2023-01-06T16:23:39.093Z,78.26
2023-01-06T16:26:09.712Z,78.37
2023-01-06T16:28:42.321Z,77.50
2023-01-06T16:31:12.069Z,78.57
2023-01-06T16:33:48.264Z,78.27
2023-01-06T16:36:17.042Z,78.80
2023-01-06T16:38:44.365Z,78.61
2023-01-06T16:41:17.797Z,78.40
2023-01-06T16:43:45.614Z,78.70
2023-01-06T16:46:22.877Z,78.18
2023-01-06T16:48:51.839Z,78.98
2023-01-06T16:51:19.023Z,78.51
2023-01-06T16:53:45.872Z,78.83
2023-01-06T16:56:22.579Z,78.73
2023-01-06T16:58:50.281Z,79.38
2023-01-06T17:01:20.155Z,79.34
2023-01-06T17:03:57.823Z,80.07
2023-01-06T17:06:27.437Z,80.05
2023-01-06T17:09:01.201Z,80.16
2023-01-06T17:11:30.858Z,80.17
2023-01-06T17:14:00.627Z,80.79
2023-01-06T17:16:39.713Z,81.34
2023-01-06T17:19:19.370Z,81.41
2023-01-06T17:21:47.242Z,81.63
2023-01-06T17:24:17.328Z,81.86
2023-01-06T17:26:58.943Z,82.34
2023-01-06T17:29:30.033Z,83.33
2023-01-06T17:32:00.609Z,83.52
2023-01-06T17:34:31.626Z,84.15
2023-01-06T17:37:03.314Z,84.16
2023-01-06T17:39:35.659Z,84.61
2023-01-06T17:42:28.096Z,84.98
2023-01-06T17:44:57.181Z,85.67
2023-01-06T17:47:36.984Z,85.67
2023-01-06T17:50:25.504Z,85.62
2023-01-06T17:53:27.025Z,86.05
2023-01-06T17:55:53.445Z,86.36
2023-01-06T17:58:27.226Z,86.33
2023-01-06T18:00:53.794Z,86.16
2023-01-06T18:03:27.300Z,86.33
2023-01-06T18:06:18.868Z,86.33
2023-01-06T18:08:46.743Z,86.25
2023-01-06T18:11:20.697Z,86.14
2023-01-06T18:13:50.287Z,87.24
2023-01-06T18:16:32.772Z,87.01
2023-01-06T18:19:04.505Z,87.30
2023-01-06T18:21:37.462Z,87.38
2023-01-06T18:24:22.443Z,87.47
2023-01-06T18:26:53.158Z,87.31
2023-01-06T18:29:24.323Z,87.53
2023-01-06T18:31:51.728Z,87.45
2023-01-06T18:34:31.814Z,87.65
2023-01-06T18:37:00.033Z,87.75
2023-01-06T18:39:37.493Z,87.63
2023-01-06T18:42:27.888Z,88.00
2023-01-06T18:45:24.728Z,88.09
2023-01-06T18:47:54.222Z,88.19
2023-01-06T18:50:31.519Z,88.37
2023-01-06T18:53:05.319Z,88.19
2023-01-06T18:55:45.843Z,88.30
2023-01-06T18:58:12.258Z,88.32
2023-01-06T19:00:41.943Z,88.42
2023-01-06T19:03:14.185Z,88.53
2023-01-06T19:05:41.724Z,89.14
2023-01-06T19:08:26.636Z,89.25
2023-01-06T19:10:53.287Z,89.10
2023-01-06T19:13:24.399Z,89.25
2023-01-06T19:15:50.870Z,88.56
2023-01-06T19:18:19.644Z,88.46
2023-01-06T19:20:47.205Z,88.18
2023-01-06T19:23:26.610Z,89.19
2023-01-06T19:26:03.655Z,89.32
2023-01-06T19:28:33.330Z,89.36
2023-01-06T19:31:21.138Z,89.86
2023-01-06T19:33:57.724Z,89.80
2023-01-06T19:36:34.261Z,89.91
2023-01-06T19:39:06.924Z,89.38
2023-01-06T19:41:33.934Z,89.83
2023-01-06T19:44:10.192Z,90.21
2023-01-06T19:46:39.776Z,89.84
2023-01-06T19:49:23.643Z,89.65
2023-01-06T19:51:52.961Z,89.91
2023-01-06T19:54:36.595Z,89.83
2023-01-06T19:57:17.476Z,90.32
2023-01-06T19:59:43.911Z,90.12
2023-01-06T20:02:10.427Z,90.36
2023-01-06T20:04:36.959Z,89.91
2023-01-06T20:07:04.272Z,90.20
2023-01-06T20:09:33.212Z,90.10
2023-01-06T20:12:00.172Z,90.38
2023-01-06T20:14:26.758Z,90.65
2023-01-06T20:16:53.248Z,90.91
2023-01-06T20:19:21.405Z,90.63
2023-01-06T20:21:48.019Z,90.84
2023-01-06T20:24:14.628Z,90.79
2023-01-06T20:26:41.302Z,90.86
2023-01-06T20:29:07.656Z,90.47
2023-01-06T20:31:34.102Z,91.22
2023-01-06T20:34:00.768Z,90.32
2023-01-06T20:36:27.360Z,91.07
2023-01-06T20:38:53.897Z,91.29
2023-01-06T20:41:20.416Z,91.62
2023-01-06T20:43:46.906Z,91.55
2023-01-06T20:46:14.510Z,90.90
2023-01-06T20:48:41.253Z,90.72
2023-01-06T20:51:08.179Z,91.21
2023-01-06T20:53:34.679Z,91.27
2023-01-06T20:56:01.277Z,91.70
2023-01-06T20:58:27.801Z,91.96
2023-01-06T21:00:54.304Z,91.60
2023-01-06T21:03:20.740Z,91.98
2023-01-06T21:05:47.142Z,92.60
2023-01-06T21:08:14.014Z,92.29
2023-01-06T21:10:40.363Z,92.07
2023-01-06T21:13:06.774Z,92.17
2023-01-06T21:15:33.310Z,92.61
2023-01-06T21:17:59.756Z,92.49
2023-01-06T21:20:26.235Z,91.89
2023-01-06T21:22:52.642Z,92.16
2023-01-06T21:25:19.752Z,91.97
2023-01-06T21:27:46.540Z,92.02
2023-01-06T21:30:13.474Z,92.57
2023-01-06T21:32:39.927Z,92.33
2023-01-06T21:35:06.539Z,91.79
2023-01-06T21:37:33.011Z,92.01
2023-01-06T21:39:59.498Z,92.12
2023-01-06T21:42:44.705Z,91.56
2023-01-06T21:45:11.319Z,91.18
2023-01-06T21:47:37.649Z,91.89
2023-01-06T21:50:05.226Z,91.74
2023-01-06T21:52:32.237Z,91.87
2023-01-06T21:54:59.106Z,91.38
2023-01-06T21:57:25.547Z,91.61
2023-01-06T21:59:51.970Z,91.46
2023-01-06T22:02:18.558Z,91.92
2023-01-06T22:04:45.030Z,91.93
2023-01-06T22:07:12.994Z,92.08
2023-01-06T22:09:42.149Z,91.71
2023-01-06T22:12:11.227Z,91.55
2023-01-06T22:14:37.836Z,91.66
2023-01-06T22:17:04.536Z,91.76
2023-01-06T22:19:31.841Z,92.65
2023-01-06T22:21:59.258Z,91.98
2023-01-06T22:24:26.052Z,92.44
2023-01-06T22:26:52.523Z,92.64
2023-01-06T22:29:18.928Z,91.88
2023-01-06T22:31:45.687Z,92.06
2023-01-06T22:34:12.131Z,92.20
2023-01-06T22:36:38.546Z,93.00
2023-01-06T22:39:05.399Z,92.78
2023-01-06T22:41:31.828Z,92.01
2023-01-06T22:43:58.326Z,92.63
2023-01-06T22:46:25.029Z,92.85
2023-01-06T22:48:51.642Z,92.81
2023-01-06T22:51:18.059Z,92.57
2023-01-06T22:53:44.399Z,92.88
2023-01-06T22:56:12.209Z,92.08
2023-01-06T22:58:40.547Z,92.17
2023-01-06T23:01:08.157Z,92.76
2023-01-06T23:03:35.301Z,92.93
2023-01-06T23:06:07.983Z,92.96
2023-01-06T23:08:37.580Z,92.98
2023-01-06T23:11:16.243Z,92.44
2023-01-06T23:13:43.937Z,93.13
2023-01-06T23:16:15.929Z,92.86
2023-01-06T23:18:44.321Z,93.28
2023-01-06T23:21:14.449Z,93.26
2023-01-06T23:23:42.562Z,92.76
2023-01-06T23:26:13.231Z,92.66
2023-01-06T23:28:40.419Z,93.13
2023-01-06T23:31:08.567Z,92.88
2023-01-06T23:33:39.542Z,92.75
2023-01-06T23:36:08.046Z,92.75
2023-01-06T23:38:34.959Z,92.50
2023-01-06T23:41:03.565Z,92.33
2023-01-06T23:43:31.968Z,91.83
2023-01-06T23:46:03.475Z,92.02
2023-01-06T23:48:31.371Z,91.99
2023-01-06T23:50:58.447Z,92.17
2023-01-06T23:53:25.757Z,92.37
2023-01-06T23:55:59.868Z,91.90
2023-01-06T23:58:29.912Z,92.25
